This is the latest recevied weather packets stored in our database for station/object N0RRC. If no packets are shown the sender has not sent any weather packets the latest 10 day(s).
| Time | Temp. | Humidity | Pressure | Rain* | Wind** | Luminosity | Snow |
|---|---|---|---|---|---|---|---|
| 1777831617 | 16.11° C | 62% | 1006.5 hPa | 0 mm | - | 913 W/m² | - |
| 1777828617 | 15° C | 63% | 1007.6 hPa | 0 mm | - | 912 W/m² | - |
| 1777826817 | 13.33° C | 69% | 1008.2 hPa | 0 mm | - | 647 W/m² | - |
| 1777826218 | 12.78° C | 69% | 1008.3 hPa | 0 mm | - | 468 W/m² | - |
| 1777825018 | 11.67° C | 75% | 1008.6 hPa | 0 mm | - | 394 W/m² | - |
| 1777823817 | 11.11° C | 78% | 1008.7 hPa | 0 mm | - | 273 W/m² | - |
| 1777823217 | 11.11° C | 77% | 1008.8 hPa | 0 mm | - | 209 W/m² | - |
| 1777821417 | 11.67° C | 73% | 1009 hPa | 0 mm | - | 86 W/m² | - |
| 1777808816 | 8.89° C | 65% | 1010.2 hPa | 0 mm | - | 44 W/m² | - |
| 1777805836 | 8.89° C | 63% | 1010.3 hPa | 0 mm | - | 3 W/m² | - |
| 1777804016 | 8.89° C | 63% | 1010.7 hPa | 0 mm | - | 0 W/m² | - |
| 1777798617 | 8.33° C | 64% | 1011.3 hPa | 0 mm | - | 0 W/m² | - |
| 1777796816 | 7.22° C | 69% | 1011.1 hPa | 0 mm | - | 0 W/m² | - |
| 1777793217 | 7.78° C | 68% | 1011.7 hPa | 0 mm | - | 0 W/m² | - |
| 1777790816 | 7.78° C | 67% | 1012 hPa | 0 mm | - | 0 W/m² | - |
| 1777787817 | 7.22° C | 68% | 1012.5 hPa | 0 mm | - | 0 W/m² | - |
| 1777780017 | 7.78° C | 63% | 1013.2 hPa | 0 mm | - | 0 W/m² | - |
| 1777777616 | 7.78° C | 63% | 1013.4 hPa | 0 mm | - | 0 W/m² | - |
| 1777775816 | 8.33° C | 60% | 1013.4 hPa | 0 mm | - | 0 W/m² | - |
| 1777771016 | 10.56° C | 54% | 1013.1 hPa | 0 mm | - | 0 W/m² | - |
| 1777769216 | 11.67° C | 50% | 1013.3 hPa | 0 mm | - | 11 W/m² | - |
| 1777766816 | 12.78° C | 47% | 1013.2 hPa | 0 mm | - | 35 W/m² | - |
| 1777758416 | 12.78° C | 48% | 1014.2 hPa | 0 mm | - | 246 W/m² | - |
| 1777756637 | 12.78° C | 46% | 1014.5 hPa | 0 mm | - | 202 W/m² | - |
| 1777754815 | 13.33° C | 45% | 1014.9 hPa | 0 mm | - | 811 W/m² | - |
* Rain latest hour (hover to see other rain measurements)
** Current wind speed in m/s (hover to see current wind gust speed)